Time;durP1;ratioP1;P1;durP2;ratioP2;P2;SDS_P1;SDS_P2;PMS_P1;PMS_P2;Temp;Humidity;BMP_temperature;BMP_pressure;BME280_temperature;BME280_humidity;BME280_pressure;Samples;Min_cycle;Max_cycle;Signal;HPM_P1;HPM_P2
2021/12/12 00:00:50;;;;;;;301.90;110.90;;;;;;;-1.92;69.96;100782.76;126947;1310;108966;-76
2021/12/12 00:04:10;;;;;;;317.20;118.30;;;;;;;-1.91;70.21;100780.64;126826;1310;108888;-76
2021/12/12 00:07:21;;;;;;;238.50;86.30;;;;;;;-1.93;70.22;100784.02;126416;1311;107807;-76
2021/12/12 00:10:30;;;;;;;215.30;80.40;;;;;;;-1.94;70.11;100781.61;126582;1310;108550;-76
2021/12/12 00:13:40;;;;;;;209.30;79.20;;;;;;;-1.96;70.08;100783.26;126901;1311;108815;-77
2021/12/12 00:16:46;;;;;;;190.20;73.50;;;;;;;-1.95;70.22;100782.00;126948;1310;108790;-77
2021/12/12 00:19:52;;;;;;;226.40;76.90;;;;;;;-1.95;70.22;100782.02;126615;1311;108851;-76
2021/12/12 00:22:59;;;;;;;302.00;88.00;;;;;;;-1.94;70.19;100786.14;126613;1310;107941;-78
2021/12/12 00:26:06;;;;;;;213.90;74.20;;;;;;;-1.91;70.28;100787.61;126674;1314;108663;-75
2021/12/12 00:29:14;;;;;;;219.60;74.70;;;;;;;-1.84;70.18;100785.92;126566;1313;108999;-77
2021/12/12 00:32:25;;;;;;;194.20;69.40;;;;;;;-1.77;70.21;100778.14;126437;1310;108808;-77
2021/12/12 00:35:31;;;;;;;219.20;78.80;;;;;;;-1.71;70.23;100779.14;126853;1314;108897;-76
2021/12/12 00:38:36;;;;;;;233.20;84.60;;;;;;;-1.69;70.14;100778.50;126557;1311;109028;-77
2021/12/12 00:41:46;;;;;;;256.70;93.00;;;;;;;-1.66;70.28;100776.48;126613;1310;108347;-79
2021/12/12 00:44:56;;;;;;;234.20;82.50;;;;;;;-1.69;69.89;100771.17;126449;1311;107373;-79
2021/12/12 00:48:02;;;;;;;205.70;75.60;;;;;;;-1.72;70.10;100769.77;126454;1310;108811;-77
2021/12/12 00:51:11;;;;;;;182.70;71.60;;;;;;;-1.77;69.92;100769.95;126416;1310;108912;-77
2021/12/12 00:54:19;;;;;;;194.20;71.40;;;;;;;-1.82;69.91;100774.84;126663;1310;108718;-77
2021/12/12 00:57:25;;;;;;;182.50;71.90;;;;;;;-1.88;69.68;100779.30;126464;1314;108922;-77
2021/12/12 01:00:36;;;;;;;180.30;71.40;;;;;;;-1.92;70.01;100778.06;126592;1310;108895;-77
2021/12/12 01:03:45;;;;;;;189.90;71.80;;;;;;;-1.94;69.61;100781.28;126412;1310;106903;-79
2021/12/12 01:06:54;;;;;;;181.60;71.30;;;;;;;-1.95;69.94;100779.75;126460;1314;109735;-77
2021/12/12 01:10:08;;;;;;;182.80;69.80;;;;;;;-1.98;70.02;100777.39;126649;1310;108916;-79
2021/12/12 01:13:15;;;;;;;170.00;66.90;;;;;;;-2.00;69.76;100777.34;126582;1310;108947;-79
2021/12/12 01:16:26;;;;;;;172.70;67.60;;;;;;;-2.02;69.85;100775.32;126661;1311;107382;-78
2021/12/12 01:19:34;;;;;;;176.30;68.20;;;;;;;-2.07;69.88;100771.14;126890;1310;108785;-78
2021/12/12 01:22:41;;;;;;;186.70;70.90;;;;;;;-2.07;69.90;100774.78;126880;1314;108818;-79
2021/12/12 01:25:48;;;;;;;189.10;70.40;;;;;;;-2.05;69.99;100780.30;126915;1311;108730;-77
2021/12/12 01:28:54;;;;;;;181.60;69.00;;;;;;;-2.04;70.00;100779.92;126947;1310;109861;-76
2021/12/12 01:32:03;;;;;;;175.70;69.80;;;;;;;-2.04;69.90;100777.27;126600;1310;108906;-76
2021/12/12 01:35:15;;;;;;;181.80;69.70;;;;;;;-2.05;70.09;100774.70;126936;1310;108816;-77
2021/12/12 01:41:59;;;;;;;178.60;66.30;;;;;;;-2.00;70.28;100782.57;126865;1310;107349;-76
2021/12/12 01:45:12;;;;;;;181.60;67.80;;;;;;;-1.95;69.99;100783.91;126449;1313;108737;-76
2021/12/12 01:48:21;;;;;;;198.60;66.90;;;;;;;-1.86;70.18;100786.35;126471;1316;108769;-77
2021/12/12 01:51:29;;;;;;;171.70;60.60;;;;;;;-1.76;70.12;100788.75;126756;1310;108534;-76
2021/12/12 01:54:43;;;;;;;175.90;65.30;;;;;;;-1.68;70.30;100786.14;126736;1314;108417;-77
2021/12/12 01:57:50;;;;;;;168.80;66.90;;;;;;;-1.61;70.09;100791.98;126550;1310;108652;-77
2021/12/12 02:00:58;;;;;;;172.30;66.40;;;;;;;-1.55;69.74;100792.98;126420;1310;108701;-77
2021/12/12 02:04:07;;;;;;;179.30;70.20;;;;;;;-1.53;70.16;100790.27;126426;1314;108368;-77
2021/12/12 02:07:17;;;;;;;180.50;72.40;;;;;;;-1.51;70.10;100788.77;126531;1311;108940;-77
2021/12/12 02:10:31;;;;;;;186.30;73.70;;;;;;;-1.50;70.02;100790.48;126417;1310;108801;-79
2021/12/12 02:13:41;;;;;;;171.20;71.20;;;;;;;-1.49;69.98;100795.34;126603;1310;107348;-77
2021/12/12 02:16:50;;;;;;;187.60;73.80;;;;;;;-1.49;69.95;100792.20;126664;1310;108563;-78
2021/12/12 02:20:05;;;;;;;176.60;72.10;;;;;;;-1.51;69.98;100796.45;126878;1311;108858;-79
2021/12/12 02:23:22;;;;;;;171.20;68.60;;;;;;;-1.51;70.12;100799.45;126916;1311;108999;-80
2021/12/12 02:36:41;;;;;;;191.70;78.80;;;;;;;-1.53;70.27;100807.04;126505;1311;108855;-80
2021/12/12 02:39:47;;;;;;;200.30;78.70;;;;;;;-1.54;70.63;100806.38;126397;1311;107437;-77
2021/12/12 02:42:54;;;;;;;199.00;82.00;;;;;;;-1.61;70.74;100811.69;126405;1311;107833;-78
2021/12/12 02:45:59;;;;;;;214.60;84.70;;;;;;;-1.74;71.42;100807.33;126582;1310;108736;-78
2021/12/12 02:49:23;;;;;;;229.20;86.30;;;;;;;-1.80;72.37;100803.92;126472;1311;107702;-79
2021/12/12 02:52:31;;;;;;;211.50;84.10;;;;;;;-1.86;72.46;100804.16;126409;1310;107804;-78
2021/12/12 02:55:40;;;;;;;214.00;83.00;;;;;;;-1.83;72.42;100810.81;126418;1317;108962;-77
2021/12/12 02:58:47;;;;;;;191.00;74.30;;;;;;;-1.69;72.13;100811.83;126891;1313;108762;-79
2021/12/12 03:01:56;;;;;;;191.10;75.70;;;;;;;-1.53;72.28;100816.77;127236;1310;108808;-81
2021/12/12 03:05:05;;;;;;;182.30;74.60;;;;;;;-1.38;71.56;100819.65;126798;1310;108691;-79
2021/12/12 03:08:11;;;;;;;187.80;77.10;;;;;;;-1.24;71.53;100827.80;126947;1311;108674;-75
2021/12/12 03:11:18;;;;;;;183.60;74.30;;;;;;;-1.12;71.48;100828.20;126881;1314;108539;-78
2021/12/12 03:14:23;;;;;;;188.10;78.20;;;;;;;-1.06;71.51;100829.35;126779;1310;108627;-78
2021/12/12 03:17:29;;;;;;;184.40;76.00;;;;;;;-1.10;71.91;100822.51;126662;1310;108955;-77
2021/12/12 03:20:37;;;;;;;180.20;73.60;;;;;;;-1.11;71.64;100824.83;126720;1310;108924;-77
2021/12/12 03:23:45;;;;;;;180.60;73.60;;;;;;;-1.06;71.74;100831.80;126834;1310;108982;-80
2021/12/12 03:26:55;;;;;;;184.00;75.70;;;;;;;-1.04;71.98;100828.90;126740;1310;107029;-78
2021/12/12 03:30:00;;;;;;;186.40;78.10;;;;;;;-1.05;71.95;100824.39;126849;1310;108365;-76
2021/12/12 03:33:07;;;;;;;183.70;75.40;;;;;;;-1.06;72.14;100824.98;126945;1310;108706;-77
2021/12/12 03:36:15;;;;;;;212.40;81.80;;;;;;;-1.05;71.86;100836.98;126938;1310;108677;-80
2021/12/12 03:39:25;;;;;;;202.20;76.40;;;;;;;-1.02;71.94;100839.13;126835;1310;108716;-78
2021/12/12 03:42:31;;;;;;;180.00;71.50;;;;;;;-0.97;71.87;100834.19;126922;1310;108756;-77
2021/12/12 03:45:38;;;;;;;186.40;72.60;;;;;;;-0.88;71.71;100841.69;126778;1310;108765;-76
2021/12/12 03:48:46;;;;;;;171.90;66.50;;;;;;;-0.77;71.76;100840.68;126647;1310;106734;-75
2021/12/12 03:51:53;;;;;;;168.60;67.20;;;;;;;-0.66;71.89;100852.63;126690;1310;107383;-75
2021/12/12 03:55:00;;;;;;;170.90;70.20;;;;;;;-0.60;71.75;100854.97;126881;1311;108982;-78
2021/12/12 03:58:09;;;;;;;174.60;69.80;;;;;;;-0.54;71.86;100859.97;126599;1313;108830;-77
2021/12/12 04:01:19;;;;;;;191.20;74.20;;;;;;;-0.51;71.66;100865.76;126671;1310;107718;-78
2021/12/12 04:04:28;;;;;;;192.20;74.80;;;;;;;-0.55;72.30;100875.20;126842;1310;109798;-77
2021/12/12 04:07:34;;;;;;;186.70;73.30;;;;;;;-0.70;72.19;100881.63;126576;1314;108916;-79
2021/12/12 04:10:40;;;;;;;178.80;74.90;;;;;;;-0.73;72.51;100880.52;126977;1310;108819;-78
2021/12/12 04:13:48;;;;;;;185.80;73.50;;;;;;;-0.80;72.48;100881.32;126975;1311;108893;-77
2021/12/12 04:16:56;;;;;;;175.50;73.50;;;;;;;-0.93;72.60;100893.92;126685;1314;108807;-77
2021/12/12 04:20:07;;;;;;;184.90;74.00;;;;;;;-0.93;72.69;100903.17;126719;1310;108393;-76
2021/12/12 04:23:19;;;;;;;186.10;72.20;;;;;;;-1.02;73.04;100907.20;126690;1317;108785;-83
2021/12/12 04:26:27;;;;;;;160.60;64.50;;;;;;;-1.18;73.62;100913.28;126927;1310;108704;-82
2021/12/12 04:29:35;;;;;;;148.70;58.10;;;;;;;-1.35;74.02;100916.58;126916;1311;108883;-79
2021/12/12 04:32:41;;;;;;;148.00;56.10;;;;;;;-1.46;74.86;100926.95;126650;1316;108789;-79
2021/12/12 04:35:46;;;;;;;152.90;59.90;;;;;;;-1.53;74.70;100931.77;126696;1310;107355;-78
2021/12/12 04:38:52;;;;;;;180.10;64.70;;;;;;;-1.59;74.98;100934.95;126437;1311;108797;-78
2021/12/12 04:42:02;;;;;;;152.90;59.40;;;;;;;-1.63;74.52;100935.96;126685;1310;108812;-79
2021/12/12 04:45:20;;;;;;;150.50;59.80;;;;;;;-1.67;75.02;100936.48;126647;1314;108755;-81
2021/12/12 04:52:01;;;;;;;152.70;60.80;;;;;;;-1.93;75.07;100935.19;126553;1310;108903;-80
2021/12/12 04:55:12;;;;;;;171.90;63.50;;;;;;;-2.02;76.10;100937.59;126545;1316;108710;-77
2021/12/12 04:58:24;;;;;;;177.80;66.80;;;;;;;-2.11;76.32;100936.21;126797;1310;108999;-78
2021/12/12 05:01:35;;;;;;;161.60;59.20;;;;;;;-2.18;76.60;100937.48;126925;1317;108929;-78
2021/12/12 05:04:53;;;;;;;160.70;59.10;;;;;;;-2.11;76.05;100940.03;127339;1310;108810;-79
2021/12/12 05:08:05;;;;;;;162.20;59.90;;;;;;;-1.98;76.68;100943.04;126898;1313;108434;-78
2021/12/12 05:11:14;;;;;;;169.00;60.00;;;;;;;-1.93;76.40;100946.01;127347;1310;108715;-78
2021/12/12 05:14:24;;;;;;;151.20;57.30;;;;;;;-1.97;76.24;100944.02;126888;1311;107884;-78
2021/12/12 05:17:34;;;;;;;151.70;59.10;;;;;;;-1.95;75.92;100942.93;126765;1316;108783;-77
2021/12/12 05:20:43;;;;;;;152.10;57.40;;;;;;;-1.92;75.86;100945.09;126959;1310;108883;-79
2021/12/12 05:23:53;;;;;;;146.80;57.30;;;;;;;-1.93;76.31;100946.87;126914;1313;108354;-80
2021/12/12 05:27:04;;;;;;;161.50;60.70;;;;;;;-1.95;76.17;100946.58;126959;1311;108821;-79
2021/12/12 05:30:15;;;;;;;156.30;56.80;;;;;;;-1.96;76.85;100949.42;126888;1310;108921;-77
2021/12/12 05:33:22;;;;;;;159.50;56.10;;;;;;;-1.97;76.38;100953.63;126885;1310;107640;-76
2021/12/12 05:36:29;;;;;;;148.10;53.60;;;;;;;-1.94;76.86;100955.09;126901;1314;109125;-79
2021/12/12 05:39:36;;;;;;;136.80;48.30;;;;;;;-1.87;76.18;100960.96;126565;1314;108909;-79
2021/12/12 05:42:42;;;;;;;152.70;54.30;;;;;;;-1.79;76.51;100963.27;126583;1311;108779;-80
2021/12/12 05:45:51;;;;;;;160.60;58.20;;;;;;;-1.75;76.95;100963.30;126923;1316;108736;-79
2021/12/12 05:48:59;;;;;;;155.60;54.60;;;;;;;-1.71;76.38;100965.59;126490;1311;108702;-80
2021/12/12 05:52:09;;;;;;;152.10;56.30;;;;;;;-1.66;76.58;100968.00;126844;1310;108765;-81
2021/12/12 05:55:17;;;;;;;154.40;54.90;;;;;;;-1.68;76.37;100964.09;126714;1311;108870;-81
2021/12/12 05:58:23;;;;;;;134.60;50.40;;;;;;;-1.74;76.24;100964.13;126840;1311;108081;-80
2021/12/12 06:01:31;;;;;;;163.90;53.60;;;;;;;-1.84;77.04;100968.52;126776;1310;109016;-79
2021/12/12 06:04:38;;;;;;;122.00;42.70;;;;;;;-2.00;77.32;100973.80;126955;1317;108802;-80
2021/12/12 06:07:44;;;;;;;121.50;44.90;;;;;;;-2.08;76.98;100981.40;126854;1316;109072;-81
2021/12/12 06:10:52;;;;;;;116.50;40.10;;;;;;;-2.01;76.72;100977.14;126796;1314;108802;-81
2021/12/12 06:13:58;;;;;;;104.70;36.50;;;;;;;-1.84;76.62;100977.95;127005;1311;106880;-81
2021/12/12 06:17:08;;;;;;;188.10;59.20;;;;;;;-1.72;76.22;100981.31;126812;1317;108694;-81
2021/12/12 06:20:16;;;;;;;102.40;38.70;;;;;;;-1.67;76.68;100988.62;127023;1314;108807;-78
2021/12/12 06:23:22;;;;;;;97.90;36.00;;;;;;;-1.81;75.92;100994.56;126807;1314;108676;-78
2021/12/12 06:26:28;;;;;;;95.30;36.30;;;;;;;-1.82;76.29;101000.33;127447;1317;108030;-82
2021/12/12 06:29:34;;;;;;;96.10;36.20;;;;;;;-1.81;76.18;101002.21;127609;1310;108852;-81
2021/12/12 06:32:40;;;;;;;96.50;35.40;;;;;;;-1.76;75.97;101000.48;127036;1310;108769;-81
2021/12/12 06:35:46;;;;;;;93.40;34.70;;;;;;;-1.76;75.69;101003.29;126551;1317;108764;-82
2021/12/12 06:38:54;;;;;;;200.90;76.40;;;;;;;-1.79;76.29;101007.22;126878;1310;109021;-81
2021/12/12 06:42:00;;;;;;;206.90;85.30;;;;;;;-1.71;76.00;101009.56;126751;1313;108941;-81
2021/12/12 06:45:11;;;;;;;117.10;45.90;;;;;;;-1.64;75.91;101009.97;126869;1316;108739;-77
2021/12/12 06:48:19;;;;;;;114.50;43.20;;;;;;;-1.60;76.47;101017.35;126861;1311;108935;-77
2021/12/12 06:51:26;;;;;;;116.00;43.10;;;;;;;-1.70;76.32;101011.94;127129;1311;106783;-77
2021/12/12 06:54:33;;;;;;;98.20;36.50;;;;;;;-1.79;76.17;101008.42;126982;1314;108150;-78
2021/12/12 06:57:39;;;;;;;134.10;51.50;;;;;;;-1.88;76.38;101018.34;126826;1311;108898;-78
2021/12/12 07:00:49;;;;;;;90.70;33.90;;;;;;;-1.87;76.36;101024.75;126807;1314;108931;-76
2021/12/12 07:03:55;;;;;;;87.00;33.20;;;;;;;-1.96;76.83;101027.70;127003;1311;108749;-77
2021/12/12 07:07:02;;;;;;;84.40;32.90;;;;;;;-2.08;77.10;101026.20;127056;1314;108705;-76
2021/12/12 07:10:15;;;;;;;101.90;34.80;;;;;;;-2.19;76.90;101028.32;127004;1314;106954;-78
2021/12/12 07:13:22;;;;;;;88.90;31.40;;;;;;;-2.12;77.07;101034.88;126800;1312;108654;-77
2021/12/12 07:16:28;;;;;;;88.20;32.90;;;;;;;-2.02;76.90;101039.75;126555;1314;108812;-75
2021/12/12 07:19:34;;;;;;;81.80;30.20;;;;;;;-1.93;76.67;101050.45;126637;1310;109199;-76
2021/12/12 07:22:40;;;;;;;86.90;31.50;;;;;;;-1.87;76.99;101056.34;126526;1314;108820;-77
2021/12/12 07:25:46;;;;;;;101.90;38.30;;;;;;;-1.86;76.66;101060.84;126505;1311;108797;-77
2021/12/12 07:28:54;;;;;;;116.50;43.90;;;;;;;-1.77;76.96;101058.77;126538;1313;108630;-76
2021/12/12 07:32:00;;;;;;;85.30;31.30;;;;;;;-1.75;77.09;101062.17;126554;1314;106680;-76
2021/12/12 07:35:08;;;;;;;230.70;80.40;;;;;;;-1.86;76.88;101065.71;126670;1313;172973;-77
2021/12/12 07:38:17;;;;;;;447.10;190.80;;;;;;;-1.76;76.81;101067.45;126709;1314;108859;-80
2021/12/12 07:41:25;;;;;;;138.80;49.90;;;;;;;-1.61;76.74;101068.84;126976;1314;108934;-78
2021/12/12 07:44:34;;;;;;;86.50;31.20;;;;;;;-1.51;76.70;101072.85;126998;1311;108835;-80
2021/12/12 07:47:39;;;;;;;78.20;30.20;;;;;;;-1.55;76.59;101069.83;127069;1311;109147;-80
2021/12/12 07:50:47;;;;;;;76.60;28.20;;;;;;;-1.64;76.77;101067.38;126851;1313;106621;-80
2021/12/12 07:53:57;;;;;;;84.20;31.80;;;;;;;-1.69;76.66;101076.98;127053;1314;108851;-79
2021/12/12 07:57:04;;;;;;;79.30;30.20;;;;;;;-1.55;76.82;101076.13;126996;1314;108818;-77
2021/12/12 08:00:14;;;;;;;96.80;34.30;;;;;;;-1.34;76.62;101080.26;126943;1313;109018;-79
2021/12/12 08:03:24;;;;;;;89.70;31.50;;;;;;;-1.25;76.55;101080.60;126885;1313;107416;-81
2021/12/12 08:06:30;;;;;;;83.00;31.70;;;;;;;-1.16;76.57;101085.17;127005;1314;106873;-80
2021/12/12 08:09:38;;;;;;;75.50;30.50;;;;;;;-1.07;76.16;101088.68;128160;1314;106794;-79
2021/12/12 08:12:45;;;;;;;95.70;35.20;;;;;;;-0.97;76.41;101089.88;126778;1313;107714;-78
2021/12/12 08:15:51;;;;;;;94.30;32.90;;;;;;;-0.86;76.27;101089.61;126750;1310;108943;-78
2021/12/12 08:18:58;;;;;;;88.10;30.50;;;;;;;-0.76;75.95;101092.38;127020;1314;108797;-77
2021/12/12 08:22:06;;;;;;;72.80;28.00;;;;;;;-0.63;76.14;101092.91;126779;1313;108737;-79
2021/12/12 08:25:15;;;;;;;70.90;27.50;;;;;;;-0.46;75.84;101090.13;126756;1310;108809;-82
2021/12/12 08:28:21;;;;;;;71.30;28.60;;;;;;;-0.31;75.81;101096.00;126903;1314;108831;-76
2021/12/12 08:31:27;;;;;;;83.40;33.80;;;;;;;-0.19;75.88;101105.46;126980;1314;108982;-80
2021/12/12 08:34:34;;;;;;;76.00;29.00;;;;;;;-0.11;75.55;101105.49;126878;1310;108538;-79
2021/12/12 08:37:40;;;;;;;73.00;28.90;;;;;;;-0.15;75.57;101104.41;126908;1314;108816;-81
2021/12/12 08:40:50;;;;;;;85.20;31.90;;;;;;;-0.30;75.07;101099.45;127025;1314;108616;-83
2021/12/12 08:43:55;;;;;;;75.70;29.80;;;;;;;-0.54;75.31;101102.33;127078;1313;109283;-82
2021/12/12 08:47:02;;;;;;;74.70;31.20;;;;;;;-0.59;75.88;101098.17;127249;1311;108785;-83
2021/12/12 08:50:11;;;;;;;72.30;30.20;;;;;;;-0.50;76.02;101097.45;127135;1310;108932;-82
2021/12/12 08:53:18;;;;;;;194.70;83.40;;;;;;;-0.38;75.91;101092.27;127077;1311;108928;-80
2021/12/12 08:56:41;;;;;;;93.00;37.50;;;;;;;-0.31;75.47;101088.67;126997;1311;108779;-83
2021/12/12 08:59:48;;;;;;;119.30;46.50;;;;;;;-0.15;75.52;101090.45;127169;1313;106729;-77
2021/12/12 09:02:57;;;;;;;92.00;38.20;;;;;;;-0.10;75.35;101088.48;127262;1313;108756;-76
2021/12/12 09:06:03;;;;;;;82.10;32.00;;;;;;;0.04;75.63;101087.89;126866;1310;108857;-82
2021/12/12 09:09:14;;;;;;;87.20;36.00;;;;;;;0.18;75.62;101088.53;126702;1316;108567;-76
2021/12/12 09:12:23;;;;;;;89.20;34.50;;;;;;;0.27;75.41;101090.94;126985;1314;108975;-75
2021/12/12 09:15:38;;;;;;;82.40;33.40;;;;;;;0.29;74.89;101086.82;126957;1314;108844;-75
2021/12/12 09:18:47;;;;;;;76.50;31.20;;;;;;;0.28;75.23;101075.51;126896;1310;108383;-75
2021/12/12 09:21:57;;;;;;;77.80;30.50;;;;;;;0.37;75.34;101071.44;126957;1314;108900;-74
2021/12/12 09:25:06;;;;;;;72.00;28.50;;;;;;;0.42;75.39;101065.96;127011;1310;109089;-73
2021/12/12 09:28:23;;;;;;;71.10;28.80;;;;;;;0.48;75.23;101064.48;126728;1314;108743;-73
2021/12/12 09:31:32;;;;;;;88.00;30.80;;;;;;;0.49;75.21;101062.34;126784;1310;108716;-73
2021/12/12 09:34:44;;;;;;;85.10;30.40;;;;;;;0.57;75.08;101065.10;126983;1311;108874;-75
2021/12/12 09:37:56;;;;;;;63.70;25.10;;;;;;;0.64;75.06;101070.79;127050;1313;109178;-75
2021/12/12 09:41:23;;;;;;;67.10;25.70;;;;;;;0.73;75.02;101081.20;126955;1310;107701;-75
2021/12/12 09:44:59;;;;;;;75.00;29.80;;;;;;;0.82;74.84;101075.02;127145;1310;108871;-74
2021/12/12 09:52:10;;;;;;;72.80;27.80;;;;;;;0.93;74.86;101061.02;126810;1310;107392;-73
2021/12/12 09:55:22;;;;;;;70.20;28.10;;;;;;;1.05;74.82;101050.30;126691;1314;108660;-73
2021/12/12 09:58:33;;;;;;;80.00;30.80;;;;;;;1.16;74.75;101042.40;126859;1309;108731;-72
2021/12/12 10:01:46;;;;;;;78.40;30.10;;;;;;;1.26;74.57;101035.95;126885;1313;108832;-76
2021/12/12 10:05:08;;;;;;;88.50;34.90;;;;;;;1.26;74.45;101044.20;126803;1310;108728;-72
2021/12/12 10:08:24;;;;;;;152.90;58.30;;;;;;;1.14;74.52;101061.23;126736;1310;107504;-73
2021/12/12 10:11:41;;;;;;;134.80;58.60;;;;;;;1.03;74.32;101063.68;126481;1310;108777;-77
2021/12/12 10:14:54;;;;;;;102.00;39.70;;;;;;;0.94;74.42;101065.36;126580;1311;108841;-75
2021/12/12 10:18:06;;;;;;;90.40;34.80;;;;;;;0.89;74.53;101062.80;126459;1310;108725;-75
2021/12/12 10:21:16;;;;;;;84.60;31.10;;;;;;;0.89;74.72;101063.13;126365;1311;108686;-75
2021/12/12 10:24:28;;;;;;;67.50;25.60;;;;;;;0.98;74.61;101062.70;126530;1310;108957;-77
2021/12/12 10:27:40;;;;;;;66.90;27.00;;;;;;;1.11;74.60;101054.55;126490;1311;108540;-77
2021/12/12 10:30:55;;;;;;;74.60;29.20;;;;;;;1.22;74.61;101053.34;126464;1310;108813;-75
2021/12/12 10:34:05;;;;;;;71.90;30.50;;;;;;;1.34;74.44;101052.24;126448;1310;108889;-75
2021/12/12 10:37:16;;;;;;;81.00;32.70;;;;;;;1.45;74.30;101053.30;126589;1310;108769;-80
2021/12/12 10:40:29;;;;;;;72.80;31.30;;;;;;;1.52;74.18;101048.00;126374;1310;106766;-76
2021/12/12 10:43:34;;;;;;;;;;;;;;;1.60;74.13;101035.71;126682;1310;108861;-75
2021/12/12 10:46:50;;;;;;;69.60;29.50;;;;;;;1.66;74.02;101027.73;126480;1310;108806;-79
2021/12/12 10:50:15;;;;;;;74.10;32.30;;;;;;;1.61;73.81;101023.94;126785;1314;108677;-79
2021/12/12 10:53:29;;;;;;;70.10;27.90;;;;;;;1.61;73.91;101015.69;127047;1310;108873;-81
2021/12/12 10:56:41;;;;;;;75.70;28.60;;;;;;;1.63;73.94;101016.66;126935;1314;108894;-79
2021/12/12 10:59:52;;;;;;;74.30;29.00;;;;;;;1.61;73.93;101021.81;126701;1314;108813;-79
2021/12/12 11:03:06;;;;;;;82.20;30.50;;;;;;;1.53;73.81;101034.99;126945;1310;108719;-78
2021/12/12 11:06:17;;;;;;;71.90;28.60;;;;;;;1.48;74.10;101038.41;126833;1313;108966;-81
2021/12/12 11:09:30;;;;;;;79.10;29.00;;;;;;;1.50;73.94;101036.19;126490;1310;107719;-80
2021/12/12 11:12:40;;;;;;;;;;;;;;;1.53;73.87;101036.25;126767;1310;108579;-81
2021/12/12 11:15:53;;;;;;;71.90;27.30;;;;;;;1.48;73.71;101033.87;126762;1314;108909;-82
2021/12/12 11:19:07;;;;;;;67.50;25.40;;;;;;;1.46;73.70;101036.90;126471;1311;108987;-75
2021/12/12 11:22:21;;;;;;;65.80;26.10;;;;;;;1.54;73.91;101040.58;126697;1314;108678;-81
2021/12/12 11:25:33;;;;;;;67.20;27.10;;;;;;;1.66;73.87;101042.25;126481;1314;109011;-74
2021/12/12 11:28:43;;;;;;;79.80;29.40;;;;;;;1.77;73.36;101040.49;126579;1310;109015;-72
2021/12/12 11:31:54;;;;;;;80.40;29.80;;;;;;;1.76;73.32;101041.03;126733;1310;108516;-70
2021/12/12 11:35:02;;;;;;;71.70;29.00;;;;;;;1.72;73.00;101047.73;126587;1310;108525;-74
2021/12/12 11:38:14;;;;;;;67.50;29.10;;;;;;;1.61;73.35;101044.10;126576;1310;108754;-71
2021/12/12 11:41:29;;;;;;;78.00;31.70;;;;;;;1.64;73.48;101050.98;126517;1311;109029;-72
2021/12/12 11:44:42;;;;;;;73.30;30.20;;;;;;;1.65;73.37;101052.81;127820;1313;108922;-74
2021/12/12 11:48:01;;;;;;;74.10;30.00;;;;;;;1.64;73.51;101050.07;126363;1310;108786;-73
2021/12/12 11:51:12;;;;;;;99.50;42.20;;;;;;;1.65;73.30;101050.36;126706;1310;108740;-72
2021/12/12 11:54:34;;;;;;;88.20;37.40;;;;;;;1.55;73.22;101045.80;126513;1310;108684;-73
2021/12/12 11:57:48;;;;;;;76.30;31.10;;;;;;;1.48;73.42;101042.63;126530;1310;107077;-73
2021/12/12 12:01:12;;;;;;;77.40;31.20;;;;;;;1.50;73.55;101042.54;126493;1311;108751;-73
2021/12/12 12:04:31;;;;;;;88.00;34.30;;;;;;;1.56;73.62;101041.01;126316;1311;107611;-72
2021/12/12 12:08:02;;;;;;;85.30;32.40;;;;;;;1.60;73.47;101034.34;126472;1314;108796;-73
2021/12/12 12:11:27;;;;;;;74.00;27.90;;;;;;;1.59;73.41;101028.04;126813;1310;108740;-73
2021/12/12 12:14:40;;;;;;;86.70;35.80;;;;;;;1.70;73.47;101038.39;126405;1311;108770;-71
2021/12/12 12:18:02;;;;;;;80.40;32.10;;;;;;;1.79;73.36;101035.98;126443;1310;106783;-72
2021/12/12 12:21:18;;;;;;;107.90;49.40;;;;;;;1.85;73.23;101038.85;126675;1310;108719;-73
2021/12/12 12:24:38;;;;;;;127.50;53.70;;;;;;;1.82;73.13;101034.80;126487;1311;108744;-71
2021/12/12 12:27:50;;;;;;;78.90;32.00;;;;;;;1.72;73.05;101029.48;126811;1310;108929;-73
2021/12/12 12:31:32;;;;;;;80.90;32.10;;;;;;;1.67;73.12;101029.55;126769;1310;108841;-72
2021/12/12 12:35:14;;;;;;;70.60;28.10;;;;;;;1.57;73.07;101027.45;126775;1311;108788;-73
2021/12/12 12:38:49;;;;;;;69.30;28.70;;;;;;;1.56;73.13;101022.94;126488;1310;108726;-73
2021/12/12 12:42:27;;;;;;;74.60;31.70;;;;;;;1.61;73.18;101018.13;126814;1310;108811;-74
2021/12/12 12:46:27;;;;;;;73.20;30.80;;;;;;;1.66;73.26;101015.97;126407;1311;108824;-73
2021/12/12 12:50:07;;;;;;;78.10;30.70;;;;;;;1.77;73.18;101017.15;126357;1314;108815;-73
2021/12/12 12:53:47;;;;;;;81.50;32.50;;;;;;;1.74;72.97;101013.79;126764;1310;107773;-72
2021/12/12 12:57:27;;;;;;;93.20;38.10;;;;;;;1.76;72.99;101011.75;126518;1314;108571;-72
2021/12/12 13:00:35;;;;;;;91.70;34.80;;;;;;;1.69;72.96;101014.06;125746;1317;109738;-77
2021/12/12 13:04:08;;;;;;;78.40;31.20;;;;;;;1.69;72.84;101012.10;125737;1317;108651;-71
2021/12/12 13:07:32;;;;;;;83.10;31.40;;;;;;;1.63;72.94;101014.73;126681;1310;107515;-72
2021/12/12 13:10:41;;;;;;;83.60;31.80;;;;;;;1.67;72.93;101011.88;126687;1311;107445;-78
2021/12/12 13:13:53;;;;;;;87.30;34.80;;;;;;;1.68;72.78;101015.32;126985;1310;108935;-80
2021/12/12 13:17:03;;;;;;;;;;;;;;;1.64;72.74;101016.23;126983;1314;109120;-78
2021/12/12 13:20:26;;;;;;;71.50;29.30;;;;;;;1.62;72.85;101014.41;126999;1310;107881;-77
2021/12/12 13:23:48;;;;;;;81.20;32.00;;;;;;;1.57;72.88;101015.86;126940;1314;108797;-78
2021/12/12 13:27:08;;;;;;;173.40;66.30;;;;;;;1.50;72.82;101014.63;126759;1314;108790;-78
2021/12/12 13:30:27;;;;;;;183.40;80.50;;;;;;;1.45;72.76;101026.29;126553;1310;108724;-80
2021/12/12 13:33:48;;;;;;;128.40;60.10;;;;;;;1.28;72.29;101024.34;126502;1311;108552;-77
2021/12/12 13:37:14;;;;;;;104.90;44.70;;;;;;;1.04;72.77;101024.79;126467;1311;108723;-79
2021/12/12 13:40:26;;;;;;;109.60;52.00;;;;;;;0.97;72.97;101023.70;126557;1310;107133;-78
2021/12/12 13:43:40;;;;;;;164.50;69.10;;;;;;;0.92;72.97;101020.42;126522;1311;108708;-76
2021/12/12 13:46:56;;;;;;;137.00;52.70;;;;;;;0.86;72.76;101019.11;126556;1311;108980;-77
2021/12/12 13:50:10;;;;;;;446.70;213.70;;;;;;;0.82;72.96;101027.93;126483;1310;108789;-77
2021/12/12 13:53:25;;;;;;;337.60;138.60;;;;;;;0.83;73.01;101027.16;126523;1311;108958;-78
2021/12/12 13:56:35;;;;;;;169.90;69.50;;;;;;;0.88;73.06;101029.89;126540;1310;109215;-77
2021/12/12 13:59:59;;;;;;;110.20;41.50;;;;;;;0.95;72.91;101027.99;126883;1310;108806;-77
2021/12/12 14:03:10;;;;;;;95.70;36.80;;;;;;;0.91;72.90;101022.21;126802;1311;108976;-76
2021/12/12 14:06:19;;;;;;;307.50;134.70;;;;;;;0.90;72.78;101030.67;126697;1310;108820;-76
2021/12/12 14:09:28;;;;;;;322.90;128.80;;;;;;;0.80;72.61;101035.02;126659;1309;108983;-73
2021/12/12 14:12:35;;;;;;;156.90;65.40;;;;;;;0.63;72.91;101023.18;126540;1314;108240;-74
2021/12/12 14:15:54;;;;;;;118.90;46.50;;;;;;;0.55;72.74;101026.34;126657;1311;108523;-75
2021/12/12 14:19:08;;;;;;;108.10;39.70;;;;;;;0.52;73.07;101024.38;126904;1310;108796;-76
2021/12/12 14:22:14;;;;;;;102.40;37.40;;;;;;;0.44;72.93;101042.20;126678;1311;108718;-73
2021/12/12 14:25:20;;;;;;;104.60;38.70;;;;;;;0.26;73.08;101047.04;126534;1310;108698;-79
2021/12/12 14:28:28;;;;;;;120.60;41.40;;;;;;;0.22;73.19;101044.79;126707;1310;108897;-74